createdAt,value
2024-03-08T00:00:35.566Z,606.00
2024-03-08T00:01:35.591Z,605.00
2024-03-08T00:02:35.632Z,606.00
2024-03-08T00:03:35.619Z,604.00
2024-03-08T00:04:35.613Z,606.00
2024-03-08T00:05:35.670Z,604.00
2024-03-08T00:06:35.668Z,604.00
2024-03-08T00:07:35.670Z,606.00
2024-03-08T00:08:35.701Z,602.00
2024-03-08T00:09:35.674Z,607.00
2024-03-08T00:10:35.752Z,608.00
2024-03-08T00:11:35.888Z,605.00
2024-03-08T00:12:35.743Z,603.00
2024-03-08T00:13:35.761Z,605.00
2024-03-08T00:14:35.778Z,599.00
2024-03-08T00:15:35.791Z,603.00
2024-03-08T00:16:35.785Z,607.00
2024-03-08T00:17:35.862Z,602.00
2024-03-08T00:18:35.932Z,603.00
2024-03-08T00:19:35.861Z,609.00
2024-03-08T00:20:35.909Z,603.00
2024-03-08T00:21:35.900Z,604.00
2024-03-08T00:22:35.898Z,601.00
2024-03-08T00:23:35.955Z,604.00
2024-03-08T00:24:35.940Z,603.00
2024-03-08T00:25:35.962Z,600.00
2024-03-08T00:26:35.985Z,600.00
2024-03-08T00:27:35.997Z,600.00
2024-03-08T00:28:36.038Z,601.00
2024-03-08T00:29:36.048Z,605.00
2024-03-08T00:30:36.030Z,602.00
2024-03-08T00:31:36.056Z,601.00
2024-03-08T00:32:36.183Z,605.00
2024-03-08T00:33:36.146Z,602.00
2024-03-08T00:34:36.090Z,602.00
2024-03-08T00:35:36.130Z,602.00
2024-03-08T00:36:36.137Z,600.00
2024-03-08T00:37:36.208Z,600.00
2024-03-08T00:38:36.171Z,600.00
2024-03-08T00:39:36.166Z,605.00
2024-03-08T00:40:36.174Z,606.00
2024-03-08T00:41:36.278Z,608.00
2024-03-08T00:42:36.207Z,609.00
2024-03-08T00:43:36.211Z,603.00
2024-03-08T00:44:36.277Z,601.00
2024-03-08T00:45:36.232Z,604.00
2024-03-08T00:46:36.262Z,602.00
2024-03-08T00:47:36.376Z,602.00
2024-03-08T00:48:36.362Z,604.00
2024-03-08T00:49:36.298Z,605.00
2024-03-08T00:50:36.375Z,611.00
2024-03-08T00:51:36.346Z,610.00
2024-03-08T00:52:36.363Z,610.00
2024-03-08T00:53:36.434Z,614.00
2024-03-08T00:54:36.381Z,612.00
2024-03-08T00:55:36.410Z,607.00
2024-03-08T00:56:36.450Z,611.00
2024-03-08T00:57:36.421Z,614.00
2024-03-08T00:58:36.459Z,607.00
2024-03-08T00:59:36.513Z,609.00
2024-03-08T01:00:36.489Z,613.00
2024-03-08T01:01:36.486Z,610.00
2024-03-08T01:02:36.582Z,608.00
2024-03-08T01:03:36.516Z,611.00
2024-03-08T01:04:36.530Z,612.00
2024-03-08T01:05:36.544Z,608.00
2024-03-08T01:06:36.529Z,607.00
2024-03-08T01:07:36.645Z,607.00
2024-03-08T01:08:36.595Z,604.00
2024-03-08T01:09:36.656Z,604.00
2024-03-08T01:10:36.598Z,601.00
2024-03-08T01:11:36.728Z,606.00
2024-03-08T01:12:36.618Z,608.00
2024-03-08T01:13:37.077Z,608.00
2024-03-08T01:14:36.674Z,609.00
2024-03-08T01:15:37.541Z,607.00
2024-03-08T01:16:36.648Z,603.00
2024-03-08T01:17:36.822Z,603.00
2024-03-08T01:18:36.812Z,605.00
2024-03-08T01:19:36.751Z,607.00
2024-03-08T01:20:36.745Z,604.00
2024-03-08T01:21:36.778Z,603.00
2024-03-08T01:22:37.059Z,608.00
2024-03-08T01:23:36.773Z,603.00
2024-03-08T01:24:36.734Z,603.00
2024-03-08T01:25:36.753Z,606.00
2024-03-08T01:26:36.823Z,602.00
2024-03-08T01:27:36.825Z,600.00
2024-03-08T01:28:36.774Z,603.00
2024-03-08T01:29:36.803Z,604.00
2024-03-08T01:30:36.809Z,602.00
2024-03-08T01:31:36.825Z,600.00
2024-03-08T01:32:36.948Z,602.00
2024-03-08T01:33:37.019Z,600.00
2024-03-08T01:34:36.872Z,600.00
2024-03-08T01:35:36.926Z,602.00
2024-03-08T01:36:36.890Z,606.00
2024-03-08T01:37:36.893Z,602.00
2024-03-08T01:38:36.958Z,608.00
2024-03-08T01:39:36.948Z,605.00
2024-03-08T01:40:36.959Z,607.00
2024-03-08T01:41:37.133Z,602.00
2024-03-08T01:42:36.965Z,604.00
2024-03-08T01:43:37.029Z,604.00
2024-03-08T01:44:37.006Z,603.00
2024-03-08T01:45:37.001Z,602.00
2024-03-08T01:46:37.020Z,602.00
2024-03-08T01:47:37.153Z,601.00
2024-03-08T01:48:37.135Z,601.00
2024-03-08T01:49:37.057Z,603.00
2024-03-08T01:50:37.114Z,602.00
2024-03-08T01:51:37.079Z,605.00
2024-03-08T01:52:37.121Z,602.00
2024-03-08T01:53:37.128Z,605.00
2024-03-08T01:54:37.194Z,607.00
2024-03-08T01:55:37.159Z,606.00
2024-03-08T01:56:37.151Z,606.00
2024-03-08T01:57:37.179Z,606.00
2024-03-08T01:58:37.170Z,605.00
2024-03-08T01:59:37.190Z,607.00
2024-03-08T02:00:37.200Z,609.00
2024-03-08T02:01:37.245Z,608.00
2024-03-08T02:02:37.238Z,606.00
2024-03-08T02:03:37.251Z,603.00
2024-03-08T02:04:37.263Z,608.00
2024-03-08T02:05:37.372Z,602.00
2024-03-08T02:06:37.320Z,603.00
2024-03-08T02:07:37.283Z,603.00
2024-03-08T02:08:37.375Z,603.00
2024-03-08T02:09:37.349Z,605.00
2024-03-08T02:10:37.377Z,605.00
2024-03-08T02:11:37.880Z,604.00
2024-03-08T02:12:37.595Z,604.00
2024-03-08T02:13:37.483Z,602.00
2024-03-08T02:14:37.548Z,607.00
2024-03-08T02:15:37.494Z,603.00
2024-03-08T02:16:37.528Z,608.00
2024-03-08T02:17:37.633Z,604.00
2024-03-08T02:18:38.086Z,603.00
2024-03-08T02:19:37.562Z,603.00
2024-03-08T02:20:37.596Z,604.00
2024-03-08T02:21:37.580Z,605.00
2024-03-08T02:22:37.597Z,605.00
2024-03-08T02:23:37.637Z,604.00
2024-03-08T02:24:37.605Z,608.00
2024-03-08T02:25:37.658Z,607.00
2024-03-08T02:26:37.661Z,602.00
2024-03-08T02:27:37.665Z,603.00
2024-03-08T02:28:37.684Z,608.00
2024-03-08T02:29:37.748Z,600.00
2024-03-08T02:30:37.704Z,600.00
2024-03-08T02:31:37.746Z,610.00
2024-03-08T02:32:37.824Z,605.00
2024-03-08T02:33:37.801Z,604.00
2024-03-08T02:34:37.760Z,600.00
2024-03-08T02:35:37.783Z,604.00
2024-03-08T02:36:37.801Z,603.00
2024-03-08T02:37:37.813Z,604.00
2024-03-08T02:38:37.854Z,604.00
2024-03-08T02:39:37.828Z,604.00
2024-03-08T02:40:37.858Z,600.00
2024-03-08T02:41:37.901Z,609.00
2024-03-08T02:42:37.884Z,604.00
2024-03-08T02:43:37.882Z,609.00
2024-03-08T02:44:37.928Z,604.00
2024-03-08T02:45:37.921Z,602.00
2024-03-08T02:46:37.929Z,603.00
2024-03-08T02:47:38.045Z,602.00
2024-03-08T02:48:38.074Z,607.00
2024-03-08T02:49:37.976Z,605.00
2024-03-08T02:50:38.094Z,603.00
2024-03-08T02:51:37.998Z,603.00
2024-03-08T02:52:38.034Z,606.00
2024-03-08T02:53:38.097Z,600.00
2024-03-08T02:54:38.049Z,602.00
2024-03-08T02:55:38.066Z,604.00
2024-03-08T02:56:38.113Z,601.00
2024-03-08T02:57:38.127Z,605.00
2024-03-08T02:58:38.155Z,605.00
2024-03-08T02:59:38.173Z,601.00
2024-03-08T03:00:38.236Z,608.00
2024-03-08T03:01:38.181Z,603.00
2024-03-08T03:02:38.239Z,603.00
2024-03-08T03:03:38.217Z,606.00
2024-03-08T03:04:38.240Z,602.00
2024-03-08T03:05:38.296Z,603.00
2024-03-08T03:06:38.284Z,604.00
2024-03-08T03:07:38.282Z,602.00
2024-03-08T03:08:38.325Z,604.00
2024-03-08T03:09:38.332Z,606.00
2024-03-08T03:10:38.486Z,609.00
2024-03-08T03:11:38.403Z,608.00
2024-03-08T03:12:38.421Z,605.00
2024-03-08T03:13:38.401Z,608.00
2024-03-08T03:14:38.456Z,606.00
2024-03-08T03:15:38.450Z,603.00
2024-03-08T03:16:38.519Z,608.00
2024-03-08T03:17:38.613Z,602.00
2024-03-08T03:18:38.569Z,603.00
2024-03-08T03:19:38.510Z,603.00
2024-03-08T03:20:38.623Z,602.00
2024-03-08T03:21:38.591Z,601.00
2024-03-08T03:22:38.603Z,609.00
2024-03-08T03:23:38.622Z,611.00
2024-03-08T03:24:38.619Z,607.00
2024-03-08T03:25:38.628Z,606.00
2024-03-08T03:26:38.720Z,607.00
2024-03-08T03:27:38.663Z,604.00
2024-03-08T03:28:38.670Z,605.00
2024-03-08T03:29:38.707Z,604.00
2024-03-08T03:30:38.711Z,600.00
2024-03-08T03:31:38.752Z,605.00
2024-03-08T03:32:38.820Z,601.00
2024-03-08T03:33:38.877Z,603.00
2024-03-08T03:34:38.787Z,603.00
2024-03-08T03:35:39.402Z,606.00
2024-03-08T03:36:38.813Z,603.00
2024-03-08T03:37:38.829Z,601.00
2024-03-08T03:38:38.857Z,602.00
2024-03-08T03:39:38.829Z,603.00
2024-03-08T03:40:38.887Z,601.00
2024-03-08T03:41:38.878Z,603.00
2024-03-08T03:42:38.885Z,604.00
2024-03-08T03:43:38.901Z,602.00
2024-03-08T03:44:38.950Z,605.00
2024-03-08T03:45:39.011Z,603.00
2024-03-08T03:46:38.950Z,602.00
2024-03-08T03:47:38.995Z,603.00
2024-03-08T03:48:39.196Z,598.00
2024-03-08T03:49:39.012Z,606.00
2024-03-08T03:50:39.033Z,601.00
2024-03-08T03:51:38.992Z,600.00
2024-03-08T03:52:39.020Z,598.00
2024-03-08T03:53:39.043Z,597.00
2024-03-08T03:54:39.028Z,597.00
2024-03-08T03:55:39.039Z,597.00
2024-03-08T03:56:39.185Z,601.00
2024-03-08T03:57:39.064Z,604.00
2024-03-08T03:58:39.093Z,606.00
2024-03-08T03:59:39.102Z,608.00
2024-03-08T04:00:39.115Z,606.00
2024-03-08T04:01:39.851Z,604.00
2024-03-08T04:02:39.181Z,604.00
2024-03-08T04:03:39.166Z,604.00
2024-03-08T04:04:39.190Z,609.00
2024-03-08T04:05:39.318Z,607.00
2024-03-08T04:06:39.218Z,606.00
2024-03-08T04:07:39.242Z,604.00
2024-03-08T04:08:39.287Z,607.00
2024-03-08T04:09:39.276Z,602.00
2024-03-08T04:10:39.323Z,607.00
2024-03-08T04:11:39.399Z,608.00
2024-03-08T04:12:39.365Z,606.00
2024-03-08T04:13:39.348Z,603.00
2024-03-08T04:14:39.418Z,602.00
2024-03-08T04:15:39.393Z,604.00
2024-03-08T04:16:39.378Z,602.00
2024-03-08T04:17:39.576Z,606.00
2024-03-08T04:18:39.590Z,609.00
2024-03-08T04:19:46.786Z,600.00
2024-03-08T04:20:46.848Z,600.00
2024-03-08T04:21:46.805Z,600.00
2024-03-08T04:22:46.792Z,600.00
2024-03-08T04:23:46.878Z,600.00
2024-03-08T04:24:46.797Z,602.00
2024-03-08T04:25:46.831Z,600.00
2024-03-08T04:26:46.829Z,600.00
2024-03-08T04:27:46.845Z,603.00
2024-03-08T04:28:46.808Z,601.00
2024-03-08T04:29:46.835Z,602.00
2024-03-08T04:30:46.810Z,600.00
2024-03-08T04:31:54.017Z,600.00
2024-03-08T04:32:54.186Z,600.00
2024-03-08T04:33:54.114Z,600.00
2024-03-08T04:34:53.995Z,600.00
2024-03-08T04:35:54.080Z,600.00
2024-03-08T04:36:54.025Z,602.00
2024-03-08T04:37:54.008Z,601.00
2024-03-08T04:38:54.068Z,603.00
2024-03-08T04:39:54.001Z,604.00
2024-03-08T04:40:54.029Z,601.00
2024-03-08T04:41:54.019Z,600.00
2024-03-08T04:42:54.018Z,606.00
2024-03-08T04:43:54.040Z,601.00
2024-03-08T04:44:54.010Z,601.00
2024-03-08T04:45:54.012Z,607.00
2024-03-08T04:46:54.031Z,607.00
2024-03-08T04:47:54.124Z,606.00
2024-03-08T04:48:54.122Z,604.00
2024-03-08T04:49:54.019Z,607.00
2024-03-08T04:50:54.036Z,606.00
2024-03-08T04:51:54.043Z,613.00
2024-03-08T04:52:54.028Z,609.00
2024-03-08T04:53:54.057Z,608.00
2024-03-08T04:54:54.041Z,607.00
2024-03-08T04:55:54.032Z,608.00
2024-03-08T04:56:54.042Z,607.00
2024-03-08T04:57:54.033Z,602.00
2024-03-08T04:58:54.029Z,606.00
2024-03-08T04:59:54.061Z,601.00
2024-03-08T05:00:54.078Z,601.00
2024-03-08T05:01:54.034Z,604.00
2024-03-08T05:02:54.141Z,607.00
2024-03-08T05:03:54.050Z,602.00
2024-03-08T05:04:54.028Z,601.00
2024-03-08T05:05:54.061Z,605.00
2024-03-08T05:06:54.059Z,600.00
2024-03-08T05:07:54.044Z,601.00
2024-03-08T05:08:54.083Z,601.00
2024-03-08T05:09:54.045Z,602.00
2024-03-08T05:10:54.082Z,606.00
2024-03-08T05:11:54.063Z,604.00
2024-03-08T05:12:57.169Z,601.00
2024-03-08T05:13:54.041Z,601.00
2024-03-08T05:14:54.067Z,601.00
2024-03-08T05:15:54.061Z,601.00
2024-03-08T05:16:54.042Z,603.00
2024-03-08T05:17:54.125Z,603.00
2024-03-08T05:18:54.128Z,604.00
2024-03-08T05:19:54.047Z,603.00
2024-03-08T05:20:54.108Z,603.00
2024-03-08T05:21:54.070Z,601.00
2024-03-08T05:22:54.054Z,605.00
2024-03-08T05:23:54.105Z,602.00
2024-03-08T05:24:54.048Z,606.00
2024-03-08T05:25:54.056Z,602.00
2024-03-08T05:26:54.062Z,603.00
2024-03-08T05:27:54.053Z,606.00
2024-03-08T05:28:54.074Z,606.00
2024-03-08T05:29:54.074Z,601.00
2024-03-08T05:30:54.084Z,605.00
2024-03-08T05:31:54.247Z,604.00
2024-03-08T05:32:54.251Z,605.00
2024-03-08T05:33:54.115Z,604.00
2024-03-08T05:34:54.062Z,601.00
2024-03-08T05:35:54.122Z,605.00
2024-03-08T05:36:54.065Z,605.00
2024-03-08T05:37:54.088Z,604.00
2024-03-08T05:38:54.104Z,609.00
2024-03-08T05:39:54.082Z,603.00
2024-03-08T05:40:54.063Z,604.00
2024-03-08T05:41:54.166Z,602.00
2024-03-08T05:42:54.063Z,605.00
2024-03-08T05:43:54.067Z,605.00
2024-03-08T05:44:54.134Z,601.00
2024-03-08T05:45:54.070Z,606.00
2024-03-08T05:46:54.076Z,606.00
2024-03-08T05:47:54.228Z,602.00
2024-03-08T05:48:54.204Z,600.00
2024-03-08T05:49:54.153Z,606.00
2024-03-08T05:50:54.231Z,607.00
2024-03-08T05:51:54.276Z,607.00
2024-03-08T05:52:54.308Z,603.00
2024-03-08T05:53:54.453Z,606.00
2024-03-08T05:54:54.384Z,603.00
2024-03-08T05:55:54.439Z,602.00
2024-03-08T05:56:54.598Z,606.00
2024-03-08T05:57:54.535Z,605.00
2024-03-08T05:58:54.603Z,604.00
2024-03-08T05:59:54.709Z,600.00
2024-03-08T06:00:54.818Z,606.00
2024-03-08T06:01:54.772Z,605.00
2024-03-08T06:02:54.861Z,600.00
2024-03-08T06:03:54.828Z,606.00
2024-03-08T06:04:54.883Z,604.00
2024-03-08T06:05:54.970Z,605.00
2024-03-08T06:06:54.973Z,605.00
2024-03-08T06:07:54.995Z,602.00
2024-03-08T06:08:55.124Z,603.00
2024-03-08T06:09:55.088Z,601.00
2024-03-08T06:10:55.237Z,600.00
2024-03-08T06:11:55.742Z,603.00
2024-03-08T06:12:55.203Z,600.00
2024-03-08T06:13:55.243Z,605.00
2024-03-08T06:14:55.321Z,604.00
2024-03-08T06:15:55.285Z,605.00
2024-03-08T06:16:55.344Z,601.00
2024-03-08T06:17:55.417Z,603.00
2024-03-08T06:18:55.473Z,607.00
2024-03-08T06:19:55.469Z,605.00
2024-03-08T06:20:56.545Z,599.00
2024-03-08T06:21:55.498Z,605.00
2024-03-08T06:22:55.521Z,603.00
2024-03-08T06:23:55.551Z,604.00
2024-03-08T06:24:55.675Z,600.00
2024-03-08T06:25:55.654Z,604.00
2024-03-08T06:26:55.757Z,604.00
2024-03-08T06:27:55.766Z,602.00
2024-03-08T06:28:55.741Z,601.00
2024-03-08T06:29:55.805Z,601.00
2024-03-08T06:30:55.789Z,600.00
2024-03-08T06:31:57.248Z,603.00
2024-03-08T06:32:56.137Z,600.00
2024-03-08T06:33:56.770Z,603.00
2024-03-08T06:34:55.924Z,601.00
2024-03-08T06:35:56.022Z,604.00
2024-03-08T06:36:55.964Z,608.00
2024-03-08T06:37:55.952Z,608.00
2024-03-08T06:38:56.056Z,610.00
2024-03-08T06:39:56.034Z,610.00
2024-03-08T06:40:56.170Z,613.00
2024-03-08T06:41:56.155Z,608.00
2024-03-08T06:42:56.195Z,621.00
2024-03-08T06:43:56.327Z,636.00
2024-03-08T06:44:56.418Z,645.00
2024-03-08T06:45:56.364Z,659.00
2024-03-08T06:46:59.550Z,680.00
2024-03-08T06:47:56.496Z,682.00
2024-03-08T06:48:56.472Z,692.00
2024-03-08T06:49:56.374Z,723.00
2024-03-08T06:50:56.475Z,778.00
2024-03-08T06:51:56.371Z,851.00
2024-03-08T06:52:56.401Z,889.00
2024-03-08T06:53:56.519Z,904.00
2024-03-08T06:54:56.378Z,939.00
2024-03-08T06:55:56.387Z,1065.00
2024-03-08T06:56:56.414Z,1143.00
2024-03-08T06:57:56.441Z,1230.00
2024-03-08T06:58:56.412Z,1331.00
2024-03-08T06:59:56.456Z,1406.00
2024-03-08T07:00:56.416Z,1436.00
2024-03-08T07:01:56.399Z,1467.00
2024-03-08T07:02:56.401Z,1491.00
2024-03-08T07:03:56.383Z,1519.00
2024-03-08T07:04:56.388Z,1525.00
2024-03-08T07:05:56.472Z,1526.00
2024-03-08T07:06:56.388Z,1523.00
2024-03-08T07:07:56.395Z,1507.00
2024-03-08T07:08:56.453Z,1505.00
2024-03-08T07:09:56.375Z,1515.00
2024-03-08T07:10:56.414Z,1507.00
2024-03-08T07:11:56.492Z,1498.00
2024-03-08T07:12:56.421Z,1495.00
2024-03-08T07:13:56.462Z,1499.00
2024-03-08T07:14:56.427Z,1482.00
2024-03-08T07:15:56.464Z,1487.00
2024-03-08T07:16:56.413Z,1481.00
2024-03-08T07:17:56.471Z,1495.00
2024-03-08T07:18:56.553Z,1500.00
2024-03-08T07:19:56.421Z,1504.00
2024-03-08T07:20:56.465Z,1497.00
2024-03-08T07:21:56.421Z,1484.00
2024-03-08T07:22:56.393Z,1481.00
2024-03-08T07:23:56.488Z,1502.00
2024-03-08T07:24:56.497Z,1509.00
2024-03-08T07:25:56.538Z,1485.00
2024-03-08T07:26:56.684Z,1479.00
2024-03-08T07:27:56.646Z,1481.00
2024-03-08T07:28:56.694Z,1489.00
2024-03-08T07:30:56.759Z,1476.00
2024-03-08T07:31:56.751Z,1488.00
2024-03-08T07:32:57.290Z,1496.00
2024-03-08T07:33:56.776Z,1511.00
2024-03-08T07:34:56.752Z,1537.00
2024-03-08T07:35:56.759Z,1514.00
2024-03-08T07:36:56.779Z,1519.00
2024-03-08T07:37:56.764Z,1506.00
2024-03-08T07:38:56.786Z,1518.00
2024-03-08T07:39:56.763Z,1509.00
2024-03-08T07:40:56.748Z,1508.00
2024-03-08T07:41:56.765Z,1487.00
2024-03-08T07:42:56.749Z,1499.00
2024-03-08T07:43:56.754Z,1487.00
2024-03-08T07:44:56.800Z,1489.00
2024-03-08T07:45:56.770Z,1489.00
2024-03-08T07:46:58.322Z,1484.00
2024-03-08T07:47:56.961Z,1483.00
2024-03-08T07:48:56.816Z,1471.00
2024-03-08T07:49:56.791Z,1474.00
2024-03-08T07:50:57.060Z,1488.00
2024-03-08T07:51:56.765Z,1479.00
2024-03-08T07:52:57.220Z,1478.00
2024-03-08T07:54:56.780Z,1472.00
2024-03-08T07:55:56.786Z,1457.00
2024-03-08T07:56:56.759Z,1455.00
2024-03-08T07:57:56.783Z,1450.00
2024-03-08T07:58:56.944Z,1453.00
2024-03-08T07:59:56.825Z,1451.00
2024-03-08T08:00:56.911Z,1447.00
2024-03-08T08:01:57.059Z,1436.00
2024-03-08T08:02:57.120Z,1442.00
2024-03-08T08:03:57.176Z,1435.00
2024-03-08T08:04:57.240Z,1425.00
2024-03-08T08:05:57.282Z,1430.00
2024-03-08T08:06:57.357Z,1427.00
2024-03-08T08:07:57.863Z,1434.00
2024-03-08T08:08:57.460Z,1427.00
2024-03-08T08:09:57.530Z,1422.00
2024-03-08T08:10:57.764Z,1407.00
2024-03-08T08:11:57.653Z,1417.00
2024-03-08T08:12:57.753Z,1407.00
2024-03-08T08:13:57.821Z,1408.00
2024-03-08T08:14:57.872Z,1404.00
2024-03-08T08:15:57.942Z,1400.00
2024-03-08T08:16:57.988Z,1404.00
2024-03-08T08:17:58.119Z,1409.00
2024-03-08T08:18:58.150Z,1392.00
2024-03-08T08:19:58.240Z,1397.00
2024-03-08T08:20:58.250Z,1387.00
2024-03-08T08:21:58.306Z,1380.00
2024-03-08T08:22:58.396Z,1390.00
2024-03-08T08:23:58.444Z,1374.00
2024-03-08T08:24:58.521Z,1389.00
2024-03-08T08:25:58.643Z,1390.00
2024-03-08T08:26:58.651Z,1388.00
2024-03-08T08:27:58.724Z,1372.00
2024-03-08T08:28:58.785Z,1369.00
2024-03-08T08:29:58.861Z,1373.00
2024-03-08T08:30:58.939Z,1368.00
2024-03-08T08:31:59.754Z,1372.00
2024-03-08T08:32:59.305Z,1367.00
2024-03-08T08:33:59.141Z,1360.00
2024-03-08T08:34:59.264Z,1354.00
2024-03-08T08:35:59.259Z,1350.00
2024-03-08T08:36:59.339Z,1330.00
2024-03-08T08:37:59.398Z,1337.00
2024-03-08T08:38:59.460Z,1334.00
2024-03-08T08:39:59.503Z,1315.00
2024-03-08T08:40:59.600Z,1311.00
2024-03-08T08:41:59.775Z,1308.00
2024-03-08T08:42:59.767Z,1310.00
2024-03-08T08:44:08.870Z,1298.00
2024-03-08T08:45:09.078Z,1298.00
2024-03-08T08:46:00.795Z,1299.00
2024-03-08T08:47:06.276Z,1300.00
2024-03-08T08:48:01.306Z,1299.00
2024-03-08T08:48:59.816Z,1300.00
2024-03-08T08:49:59.822Z,1299.00
2024-03-08T08:50:59.810Z,1292.00
2024-03-08T08:52:06.470Z,1288.00
2024-03-08T08:53:00.868Z,1298.00
2024-03-08T08:53:59.819Z,1298.00
2024-03-08T08:54:59.842Z,1285.00
2024-03-08T08:55:59.825Z,1269.00
2024-03-08T08:56:59.853Z,1271.00
2024-03-08T08:57:59.806Z,1267.00
2024-03-08T08:58:59.875Z,1266.00
2024-03-08T08:59:59.831Z,1261.00
2024-03-08T09:00:59.899Z,1267.00
2024-03-08T09:02:00.002Z,1264.00
2024-03-08T09:02:59.981Z,1259.00
2024-03-08T09:04:00.045Z,1256.00
2024-03-08T09:05:00.289Z,1252.00
2024-03-08T09:06:00.163Z,1262.00
2024-03-08T09:07:00.789Z,1247.00
2024-03-08T09:08:00.417Z,1240.00
2024-03-08T09:09:02.362Z,1237.00
2024-03-08T09:10:00.930Z,1238.00
2024-03-08T09:11:01.468Z,1238.00
2024-03-08T09:12:00.657Z,1239.00
2024-03-08T09:13:00.341Z,1243.00
2024-03-08T09:14:00.517Z,1237.00
2024-03-08T09:15:00.369Z,1256.00
2024-03-08T09:16:00.369Z,1242.00
2024-03-08T09:17:00.416Z,1237.00
2024-03-08T09:18:00.618Z,1238.00
2024-03-08T09:19:00.463Z,1230.00
2024-03-08T09:20:00.541Z,1237.00
2024-03-08T09:21:00.489Z,1242.00
2024-03-08T09:22:00.599Z,1225.00
2024-03-08T09:23:00.697Z,1235.00
2024-03-08T09:24:00.735Z,1267.00
2024-03-08T09:25:00.763Z,1350.00
2024-03-08T09:26:00.951Z,1408.00
2024-03-08T09:27:00.893Z,1348.00
2024-03-08T09:28:00.861Z,1301.00
2024-03-08T09:29:00.952Z,1229.00
2024-03-08T09:30:00.886Z,1146.00
2024-03-08T09:31:00.959Z,1094.00
2024-03-08T09:32:00.917Z,1040.00
2024-03-08T09:33:00.978Z,977.00
2024-03-08T09:34:00.980Z,931.00
2024-03-08T09:35:01.052Z,870.00
2024-03-08T09:37:07.707Z,600.00
2024-03-08T09:38:07.641Z,600.00
2024-03-08T09:39:07.672Z,600.00
2024-03-08T09:40:07.678Z,600.00
2024-03-08T09:41:07.661Z,600.00
2024-03-08T09:42:07.714Z,600.00
2024-03-08T09:43:07.656Z,600.00
2024-03-08T09:44:07.666Z,594.00
2024-03-08T09:45:07.733Z,600.00
2024-03-08T09:46:07.675Z,599.00
2024-03-08T09:47:07.667Z,600.00
2024-03-08T09:48:07.685Z,603.00
2024-03-08T09:49:07.829Z,599.00
2024-03-08T09:50:07.656Z,600.00
2024-03-08T09:51:07.668Z,600.00
2024-03-08T09:52:07.703Z,600.00
2024-03-08T09:53:07.732Z,602.00
2024-03-08T09:54:14.476Z,600.00
2024-03-08T09:55:08.793Z,600.00
2024-03-08T09:56:07.765Z,601.00
2024-03-08T09:57:07.774Z,602.00
2024-03-08T09:58:07.775Z,600.00
2024-03-08T09:59:07.844Z,600.00
2024-03-08T10:00:07.784Z,604.00
2024-03-08T10:01:07.835Z,602.00
2024-03-08T10:02:07.875Z,600.00
2024-03-08T10:03:07.773Z,601.00
2024-03-08T10:04:07.838Z,605.00
2024-03-08T10:05:07.829Z,604.00
2024-03-08T10:06:07.851Z,604.00
2024-03-08T10:07:07.892Z,601.00
2024-03-08T10:08:07.972Z,598.00
2024-03-08T10:09:07.985Z,584.00
2024-03-08T10:10:08.030Z,585.00
2024-03-08T10:11:08.223Z,580.00
2024-03-08T10:12:08.133Z,600.00
2024-03-08T10:13:08.139Z,602.00
2024-03-08T10:14:08.203Z,600.00
2024-03-08T10:15:08.234Z,603.00
2024-03-08T10:16:08.314Z,605.00
2024-03-08T10:17:08.315Z,600.00
2024-03-08T10:18:08.402Z,609.00
2024-03-08T10:19:08.407Z,600.00
2024-03-08T10:20:08.414Z,605.00
2024-03-08T10:21:08.693Z,605.00
2024-03-08T10:22:09.276Z,603.00
2024-03-08T10:23:11.574Z,602.00
2024-03-08T10:24:08.501Z,603.00
2024-03-08T10:25:08.523Z,603.00
2024-03-08T10:26:08.591Z,600.00
2024-03-08T10:27:08.588Z,601.00
2024-03-08T10:28:08.573Z,608.00
2024-03-08T10:29:08.777Z,602.00
2024-03-08T10:30:08.564Z,599.00
2024-03-08T10:31:08.538Z,604.00
2024-03-08T10:32:08.671Z,602.00
2024-03-08T10:33:08.603Z,600.00
2024-03-08T10:34:08.566Z,600.00
2024-03-08T10:35:08.541Z,603.00
2024-03-08T10:36:08.520Z,603.00
2024-03-08T10:37:08.525Z,605.00
2024-03-08T10:38:08.530Z,605.00
2024-03-08T10:39:08.538Z,605.00
2024-03-08T10:40:08.508Z,604.00
2024-03-08T10:41:08.586Z,609.00
2024-03-08T10:42:08.548Z,611.00
2024-03-08T10:43:08.521Z,610.00
2024-03-08T10:44:08.637Z,608.00
2024-03-08T10:45:08.528Z,609.00
2024-03-08T10:46:08.520Z,618.00
2024-03-08T10:47:08.524Z,639.00
2024-03-08T10:48:08.606Z,658.00
2024-03-08T10:49:08.774Z,674.00
2024-03-08T10:50:08.523Z,683.00
2024-03-08T10:51:08.830Z,713.00
2024-03-08T10:52:08.534Z,726.00
2024-03-08T10:53:08.531Z,752.00
2024-03-08T10:54:08.538Z,768.00
2024-03-08T10:55:08.532Z,783.00
2024-03-08T10:56:08.730Z,805.00
2024-03-08T10:57:08.522Z,807.00
2024-03-08T10:58:08.529Z,815.00
2024-03-08T10:59:08.547Z,833.00
2024-03-08T11:00:08.520Z,851.00
2024-03-08T11:01:08.608Z,863.00
2024-03-08T11:02:08.604Z,891.00
2024-03-08T11:03:08.522Z,897.00
2024-03-08T11:04:08.552Z,911.00
2024-03-08T11:05:08.561Z,925.00
2024-03-08T11:06:08.546Z,957.00
2024-03-08T11:07:08.581Z,973.00
2024-03-08T11:08:08.533Z,976.00
2024-03-08T11:09:08.606Z,1015.00
2024-03-08T11:10:08.696Z,1025.00
2024-03-08T11:11:08.894Z,1017.00
2024-03-08T11:12:08.855Z,1025.00
2024-03-08T11:13:08.874Z,1018.00
2024-03-08T11:14:08.964Z,1023.00
2024-03-08T11:15:09.043Z,1027.00
2024-03-08T11:16:09.069Z,1017.00
2024-03-08T11:17:09.182Z,1020.00
2024-03-08T11:18:09.287Z,1015.00
2024-03-08T11:19:09.307Z,1017.00
2024-03-08T11:20:09.311Z,1038.00
2024-03-08T11:21:09.379Z,1030.00
2024-03-08T11:22:09.549Z,1045.00
2024-03-08T11:23:11.828Z,1030.00
2024-03-08T11:24:09.617Z,1024.00
2024-03-08T11:25:09.677Z,1033.00
2024-03-08T11:26:09.730Z,1045.00
2024-03-08T11:27:09.763Z,1025.00
2024-03-08T11:28:09.956Z,1023.00
2024-03-08T11:29:09.875Z,1041.00
2024-03-08T11:30:09.967Z,1088.00
2024-03-08T11:31:10.005Z,1140.00
2024-03-08T11:32:10.148Z,1169.00
2024-03-08T11:33:10.884Z,1186.00
2024-03-08T11:34:10.226Z,1195.00
2024-03-08T11:35:10.237Z,1216.00
2024-03-08T11:36:10.356Z,1210.00
2024-03-08T11:37:10.336Z,1196.00
2024-03-08T11:38:10.352Z,1196.00
2024-03-08T11:39:10.417Z,1208.00
2024-03-08T11:40:10.405Z,1225.00
2024-03-08T11:41:10.509Z,1224.00
2024-03-08T11:42:10.492Z,1223.00
2024-03-08T11:43:10.506Z,1229.00
2024-03-08T11:44:10.813Z,1221.00
2024-03-08T11:45:10.610Z,1220.00
2024-03-08T11:46:10.620Z,1221.00
2024-03-08T11:47:10.670Z,1208.00
2024-03-08T11:48:10.692Z,1178.00
2024-03-08T11:49:10.737Z,1166.00
2024-03-08T11:50:10.770Z,1134.00
2024-03-08T11:51:10.787Z,1119.00
2024-03-08T11:52:10.767Z,1118.00
2024-03-08T11:53:10.779Z,1099.00
2024-03-08T11:54:10.787Z,1098.00
2024-03-08T11:55:10.791Z,1107.00
2024-03-08T11:56:11.075Z,1110.00
2024-03-08T11:57:10.802Z,1095.00
2024-03-08T11:58:10.851Z,1103.00
2024-03-08T11:59:10.810Z,1126.00
2024-03-08T12:00:10.884Z,1142.00
2024-03-08T12:01:10.944Z,1170.00
2024-03-08T12:02:10.985Z,1188.00
2024-03-08T12:03:11.005Z,1215.00
2024-03-08T12:04:10.992Z,1251.00
2024-03-08T12:05:10.894Z,1242.00
2024-03-08T12:06:11.019Z,1271.00
2024-03-08T12:07:10.891Z,1276.00
2024-03-08T12:08:11.081Z,1293.00
2024-03-08T12:09:10.890Z,1294.00
2024-03-08T12:10:10.901Z,1296.00
2024-03-08T12:11:11.066Z,1305.00
2024-03-08T12:12:11.002Z,1305.00
2024-03-08T12:13:10.945Z,1297.00
2024-03-08T12:14:10.990Z,1315.00
2024-03-08T12:15:10.984Z,1315.00
2024-03-08T12:16:11.022Z,1312.00
2024-03-08T12:17:13.660Z,1319.00
2024-03-08T12:18:11.051Z,1320.00
2024-03-08T12:19:11.050Z,1336.00
2024-03-08T12:20:11.027Z,1319.00
2024-03-08T12:21:11.098Z,1323.00
2024-03-08T12:22:11.070Z,1328.00
2024-03-08T12:23:11.034Z,1328.00
2024-03-08T12:24:11.329Z,1326.00
2024-03-08T12:25:11.038Z,1333.00